Aeroporto :
LOGIN :

Iscrizione | Disclaimer

   EN    FR    IT 

 










Sommario :    VFR   VFR Marginale   IFR   IFR Intensivo   IFR Molto Intensivo
Visibilità : 
Base nubi : 
>= 8 km
>= 3000ft
5 / 8 km
1000 / 3000 ft
1500m / 5 km
500 / 1000 ft
800 / 1500m
200 / 500 ft
< 800m
< 200 ft
Simboli :   Temporali  Nebbia  Neve Forte  Precipitazioni Forti  Vento > 20 kt
SIGMETs :   Varie  Temporali  Ghiacco  Turbolenza  Onda orograficha  Ceneri Vulcaniche






- Altitudine del aeroporto : 74 ft
- Codice IATA : MRS


LFML - Marseille / Marignane

ULTIMO METAR :
  • 172100Z AUTO 29018KT CAVOK 09/06 Q1026 NOSIG

METARs OBSOLETI :
  • 172030Z AUTO 28016KT 9999 SCT043 BKN056 OVC076 09/07 Q1025 NOSIG
  • 172000Z AUTO 27017KT 9999 FEW035 BKN045 OVC230 09/07 Q1025 BECMG BKN010 BKN020 BKN040TCU
  • 171930Z AUTO 27013KT 9999 FEW032 BKN056 OVC230 09/07 Q1025 BECMG 27025KT BKN010 BKN020 BKN040TCU
  • 171900Z AUTO 28013KT 9999 FEW033 OVC056 09/07 Q1025 BECMG 27025KT BKN010 BKN020 BKN040TCU

TAF TAF LFML
Valido dal 17 a 21 ore il 19 a 03 ore UTC


172000Z 1721/1903 28015KT 9999 OVC030
BECMG 1806/1807 32020G30KT NSC
BECMG 1814/1815 32010KT
ATIS : +33 4 42 31 15 15



MetMap, La meteo Aeronautica in un colpo d'occhio ! - Copyright ORBIFLY Dicembre 2007 - Disclaimer

ORBIFLY MET'MAP TEAM :

Programmazione e sviluppo : Alexandra Zaïnal
Concezione : Baudouin d'Aumeries
Aiuto per la programmazione : Marc-Olivier Méhu
Supporto tecnico e logistico : Manuel Goepfert
Aiuto per la traduzione : Arnaldo La Scala

Contatto : metmap@orbifly.com




FONTI E CREDITI :

   NOAA